Time;durP1;ratioP1;P1;durP2;ratioP2;P2;SDS_P1;SDS_P2;PMS_P1;PMS_P2;Temp;Humidity;BMP_temperature;BMP_pressure;BME280_temperature;BME280_humidity;BME280_pressure;Samples;Min_cycle;Max_cycle;Signal;HPM_P1;HPM_P2
2020/12/02 00:00:26;;;;;;;1.67;0.82;;;22.20;41.20;;;;;;5053064;28;20089;-49
2020/12/02 00:03:01;;;;;;;1.02;0.63;;;22.20;41.20;;;;;;5049850;28;20482;-50
2020/12/02 00:05:29;;;;;;;0.80;0.73;;;22.20;41.20;;;;;;5050457;28;20093;-49
2020/12/02 00:08:08;;;;;;;1.40;0.80;;;22.10;41.20;;;;;;5048588;28;20037;-48
2020/12/02 00:10:35;;;;;;;1.17;0.50;;;22.10;41.20;;;;;;5050846;28;20028;-50
2020/12/02 00:13:00;;;;;;;1.33;0.60;;;22.10;41.20;;;;;;5049014;28;20114;-51
2020/12/02 00:15:26;;;;;;;1.10;0.60;;;22.10;41.20;;;;;;5049663;28;20033;-50
2020/12/02 00:17:58;;;;;;;3.05;0.60;;;22.10;41.20;;;;;;5054126;28;20044;-50
2020/12/02 00:20:24;;;;;;;1.38;0.68;;;22.10;41.20;;;;;;5049812;28;20037;-50
2020/12/02 00:22:49;;;;;;;1.15;0.50;;;22.10;41.20;;;;;;5055096;28;20043;-50
2020/12/02 00:25:15;;;;;;;1.30;0.77;;;22.00;41.20;;;;;;5041701;28;20048;-49
2020/12/02 00:27:41;;;;;;;1.52;0.98;;;22.00;41.20;;;;;;5038924;28;20104;-50
2020/12/02 00:30:13;;;;;;;2.15;0.88;;;22.00;41.20;;;;;;5050293;28;20036;-49
2020/12/02 00:32:44;;;;;;;;;;;22.00;41.80;;;;;;5052320;28;20043;-50
2020/12/02 00:35:18;;;;;;;1.15;0.52;;;22.00;41.20;;;;;;5035576;28;19932;-49
2020/12/02 00:37:44;;;;;;;0.88;0.55;;;22.00;41.20;;;;;;5048387;28;20397;-50
2020/12/02 00:40:12;;;;;;;1.10;0.70;;;21.90;41.20;;;;;;5047347;28;20029;-49
2020/12/02 00:42:37;;;;;;;2.08;0.52;;;21.90;41.20;;;;;;5046684;28;20033;-49
2020/12/02 00:45:07;;;;;;;1.25;0.80;;;21.90;41.20;;;;;;5041401;28;20397;-50
2020/12/02 00:47:33;;;;;;;1.00;0.50;;;21.90;41.20;;;;;;5048795;28;20037;-50
2020/12/02 00:49:58;;;;;;;1.30;0.73;;;21.90;41.20;;;;;;5050644;28;20117;-50
2020/12/02 00:52:26;;;;;;;1.17;0.50;;;21.90;41.20;;;;;;5041213;28;20579;-50
2020/12/02 00:54:52;;;;;;;1.42;0.93;;;21.90;41.20;;;;;;5051593;28;20036;-50
2020/12/02 00:57:21;;;;;;;1.08;0.55;;;21.90;41.20;;;;;;5052246;28;20385;-50
2020/12/02 00:59:53;;;;;;;0.95;0.63;;;21.90;41.20;;;;;;5051589;28;20037;-49
2020/12/02 01:02:42;;;;;;;1.45;0.57;;;21.90;41.20;;;;;;5051466;28;20083;-49
2020/12/02 01:05:13;;;;;;;1.40;0.77;;;21.80;41.20;;;;;;5045938;28;20029;-50
2020/12/02 01:07:40;;;;;;;0.88;0.60;;;21.80;41.20;;;;;;5050189;28;20111;-50
2020/12/02 01:10:07;;;;;;;0.93;0.63;;;21.80;41.20;;;;;;5051997;28;20029;-50
2020/12/02 01:12:33;;;;;;;1.58;0.65;;;21.80;41.20;;;;;;5051094;28;20033;-50
2020/12/02 01:14:59;;;;;;;1.30;0.70;;;21.80;41.20;;;;;;5051862;28;20569;-50
2020/12/02 01:17:25;;;;;;;1.05;0.75;;;21.80;41.20;;;;;;5040244;28;20029;-50
2020/12/02 01:19:51;;;;;;;1.38;0.68;;;21.70;41.20;;;;;;5043993;28;20040;-50
2020/12/02 01:22:38;;;;;;;1.20;0.63;;;21.70;41.20;;;;;;5042202;28;20537;-50
2020/12/02 01:25:12;;;;;;;1.10;0.65;;;21.70;41.20;;;;;;5043805;28;20044;-48
2020/12/02 01:27:45;;;;;;;1.05;0.55;;;21.70;41.20;;;;;;5047731;28;20111;-49
2020/12/02 01:30:14;;;;;;;0.80;0.50;;;21.70;41.20;;;;;;5052769;28;20039;-49
2020/12/02 01:32:42;;;;;;;1.02;0.57;;;21.70;41.20;;;;;;5049539;28;20029;-50
2020/12/02 01:35:11;;;;;;;2.55;0.50;;;21.70;41.30;;;;;;5050704;28;20440;-50
2020/12/02 01:37:41;;;;;;;1.15;0.65;;;21.70;41.20;;;;;;5046985;28;20486;-50
2020/12/02 01:40:25;;;;;;;3.60;0.80;;;21.60;41.20;;;;;;5047385;28;20056;-50
2020/12/02 01:43:00;;;;;;;1.48;0.60;;;21.60;41.20;;;;;;5045888;28;20170;-50
2020/12/02 01:45:33;;;;;;;1.17;0.52;;;21.60;41.20;;;;;;5051157;28;20112;-49
2020/12/02 01:48:24;;;;;;;1.77;0.50;;;21.60;41.10;;;;;;5047308;28;20047;-49
2020/12/02 01:51:11;;;;;;;0.82;0.40;;;21.60;41.20;;;;;;5045612;28;20017;-49
2020/12/02 01:53:54;;;;;;;1.08;0.55;;;21.60;41.20;;;;;;5049433;28;20090;-50
2020/12/02 01:56:29;;;;;;;1.83;0.73;;;21.60;41.30;;;;;;5043591;28;20533;-49
2020/12/02 01:59:06;;;;;;;2.03;0.70;;;21.60;41.20;;;;;;5037919;28;20040;-50
2020/12/02 02:01:37;;;;;;;0.70;0.40;;;21.60;41.20;;;;;;5050826;28;20067;-49
2020/12/02 02:04:06;;;;;;;0.80;0.50;;;21.60;41.20;;;;;;5041559;28;20033;-50
2020/12/02 02:06:59;;;;;;;1.15;0.40;;;21.50;41.20;;;;;;5020756;28;20033;-50
2020/12/02 02:09:26;;;;;;;1.67;0.68;;;21.50;41.20;;;;;;5050542;28;20028;-50
2020/12/02 02:12:20;;;;;;;1.02;0.60;;;21.50;41.20;;;;;;5047323;28;20482;-50
2020/12/02 02:15:29;;;;;;;0.90;0.60;;;21.50;41.20;;;;;;5019292;28;20814;-50
2020/12/02 02:18:10;;;;;;;0.85;0.65;;;21.50;41.20;;;;;;5047846;28;20035;-50
2020/12/02 02:20:38;;;;;;;1.50;0.77;;;21.50;41.20;;;;;;5043270;28;20025;-50
2020/12/02 02:23:06;;;;;;;1.80;0.45;;;21.50;41.30;;;;;;5050365;28;20041;-50
2020/12/02 02:25:33;;;;;;;1.52;0.60;;;21.40;41.20;;;;;;5049838;28;20705;-50
2020/12/02 02:28:00;;;;;;;0.80;0.52;;;21.50;41.20;;;;;;5043438;28;20033;-49
2020/12/02 02:30:26;;;;;;;1.02;0.40;;;21.50;41.20;;;;;;5049469;28;20104;-50
2020/12/02 02:32:52;;;;;;;1.35;0.50;;;21.40;41.30;;;;;;5049360;28;20080;-49
2020/12/02 02:35:18;;;;;;;1.42;0.65;;;21.40;41.10;;;;;;5042056;28;20531;-49
2020/12/02 02:37:44;;;;;;;1.25;0.80;;;21.40;41.20;;;;;;5050620;28;20068;-49
2020/12/02 02:40:11;;;;;;;0.95;0.70;;;21.40;41.20;;;;;;5043029;28;20029;-50
2020/12/02 02:42:40;;;;;;;0.77;0.40;;;21.40;41.20;;;;;;5041872;28;20075;-50
2020/12/02 02:45:26;;;;;;;1.85;0.43;;;21.40;41.30;;;;;;5045555;28;20035;-51
2020/12/02 02:47:53;;;;;;;1.52;0.50;;;21.40;41.20;;;;;;5042732;28;20032;-50
2020/12/02 02:50:21;;;;;;;1.15;0.47;;;21.30;41.70;;;;;;5041900;28;20089;-49
2020/12/02 02:52:48;;;;;;;0.90;0.50;;;21.30;41.10;;;;;;5037301;28;20116;-50
2020/12/02 02:55:23;;;;;;;1.35;0.50;;;21.40;41.10;;;;;;5038768;28;20028;-50
2020/12/02 02:57:49;;;;;;;1.63;0.50;;;21.30;41.20;;;;;;5048583;28;20037;-49
2020/12/02 03:00:27;;;;;;;0.82;0.50;;;21.30;41.20;;;;;;5048865;28;20035;-50
2020/12/02 03:02:53;;;;;;;1.42;0.57;;;21.30;41.10;;;;;;5034337;28;20029;-49
2020/12/02 03:05:19;;;;;;;1.05;0.70;;;21.30;41.20;;;;;;5045938;28;20032;-49
2020/12/02 03:07:51;;;;;;;1.25;0.57;;;21.30;41.20;;;;;;5045960;28;20055;-48
2020/12/02 03:10:20;;;;;;;;;;;21.30;41.20;;;;;;5040318;28;20032;-50
2020/12/02 03:12:45;;;;;;;0.90;0.40;;;21.30;41.20;;;;;;5047132;28;19909;-50
2020/12/02 03:15:11;;;;;;;0.85;0.43;;;21.20;41.20;;;;;;5045442;28;20021;-49
2020/12/02 03:17:37;;;;;;;1.63;0.68;;;21.20;41.20;;;;;;5047556;28;20069;-49
2020/12/02 03:20:20;;;;;;;0.82;0.35;;;21.20;41.20;;;;;;5045506;28;20021;-49
2020/12/02 03:22:48;;;;;;;0.90;0.55;;;21.20;41.20;;;;;;5034648;28;20506;-51
2020/12/02 03:25:19;;;;;;;0.82;0.40;;;21.20;41.10;;;;;;5038653;28;20031;-50
2020/12/02 03:27:45;;;;;;;;;;;21.20;41.10;;;;;;5045671;28;20079;-49
2020/12/02 03:30:11;;;;;;;1.00;0.40;;;21.20;41.20;;;;;;5045869;28;20281;-49
2020/12/02 03:32:36;;;;;;;0.90;0.50;;;21.20;41.20;;;;;;5049494;28;20094;-49
2020/12/02 03:35:04;;;;;;;2.67;0.60;;;21.20;41.20;;;;;;5047756;28;20040;-49
2020/12/02 03:37:29;;;;;;;0.80;0.40;;;21.20;41.20;;;;;;5037222;28;20037;-49
2020/12/02 03:39:55;;;;;;;1.88;0.40;;;21.20;41.20;;;;;;5042709;28;20071;-49
2020/12/02 03:42:21;;;;;;;1.00;0.52;;;21.20;41.20;;;;;;5050463;28;20040;-50
2020/12/02 03:44:47;;;;;;;1.00;0.38;;;21.20;41.30;;;;;;5047450;28;20559;-49
2020/12/02 03:47:13;;;;;;;0.75;0.57;;;21.10;41.20;;;;;;5038412;28;20125;-50
2020/12/02 03:49:38;;;;;;;2.67;0.60;;;21.20;41.20;;;;;;5044219;28;20445;-49
2020/12/02 03:52:04;;;;;;;1.15;0.52;;;21.20;41.20;;;;;;5065153;23;20049;-48
2020/12/02 03:54:29;;;;;;;1.05;0.50;;;21.20;41.20;;;;;;5046686;28;20136;-47
2020/12/02 03:56:55;;;;;;;1.05;0.50;;;21.10;41.20;;;;;;5048231;28;20469;-46
2020/12/02 03:59:20;;;;;;;1.15;0.55;;;21.20;41.20;;;;;;5050269;28;20032;-47
2020/12/02 04:01:46;;;;;;;1.08;0.52;;;21.10;41.20;;;;;;5054220;28;20044;-48
2020/12/02 04:04:12;;;;;;;1.15;0.50;;;21.10;41.20;;;;;;5043702;28;20033;-46
2020/12/02 04:06:37;;;;;;;0.70;0.30;;;21.10;41.10;;;;;;5053807;28;20033;-45
2020/12/02 04:09:03;;;;;;;2.03;0.75;;;21.10;41.20;;;;;;5054653;28;20024;-47
2020/12/02 04:11:29;;;;;;;1.00;0.38;;;21.10;41.20;;;;;;5057058;28;20056;-47
2020/12/02 04:13:54;;;;;;;0.55;0.30;;;21.10;41.70;;;;;;5046374;28;20034;-46
2020/12/02 04:16:20;;;;;;;1.30;0.52;;;21.10;41.20;;;;;;5046927;28;20109;-45
2020/12/02 04:18:46;;;;;;;1.35;0.80;;;21.10;41.20;;;;;;5038236;28;20040;-47
2020/12/02 04:21:11;;;;;;;1.38;0.68;;;21.10;41.30;;;;;;5046810;28;20410;-47
2020/12/02 04:23:37;;;;;;;0.90;0.65;;;21.10;41.30;;;;;;5040314;28;20029;-48
2020/12/02 04:26:03;;;;;;;0.88;0.60;;;21.00;41.30;;;;;;5048702;28;20104;-45
2020/12/02 04:28:28;;;;;;;1.05;0.60;;;21.00;41.30;;;;;;5050478;28;20028;-48
2020/12/02 04:30:58;;;;;;;0.88;0.55;;;21.00;41.20;;;;;;5050833;28;20032;-47
2020/12/02 04:33:24;;;;;;;1.20;0.40;;;21.00;41.30;;;;;;5046758;28;20470;-45
2020/12/02 04:35:50;;;;;;;1.15;0.45;;;21.00;41.30;;;;;;5047155;28;20057;-46
2020/12/02 04:38:15;;;;;;;2.22;0.65;;;21.00;41.30;;;;;;5041806;28;20033;-47
2020/12/02 04:40:41;;;;;;;0.90;0.50;;;21.00;41.40;;;;;;5054282;28;20044;-45
2020/12/02 04:43:23;;;;;;;0.90;0.38;;;21.00;41.30;;;;;;5047663;28;20037;-46
2020/12/02 04:45:50;;;;;;;0.95;0.50;;;21.00;41.20;;;;;;5049793;28;20095;-45
2020/12/02 04:48:21;;;;;;;0.80;0.40;;;20.90;41.30;;;;;;5038019;28;20021;-49
2020/12/02 04:50:46;;;;;;;0.90;0.68;;;20.90;41.20;;;;;;5045028;28;20026;-49
2020/12/02 04:53:19;;;;;;;1.33;0.73;;;20.90;41.30;;;;;;5034616;28;20370;-44
2020/12/02 04:55:51;;;;;;;1.08;0.40;;;20.90;41.40;;;;;;5047541;28;20029;-45
2020/12/02 04:58:26;;;;;;;1.15;0.50;;;20.90;41.20;;;;;;5048607;28;20428;-49
2020/12/02 05:00:52;;;;;;;1.15;0.50;;;20.90;41.30;;;;;;5035748;28;20026;-46
2020/12/02 05:03:18;;;;;;;0.80;0.50;;;20.90;41.50;;;;;;5039050;28;20087;-45
2020/12/02 05:05:44;;;;;;;0.80;0.50;;;20.90;41.30;;;;;;5047752;28;20053;-49
2020/12/02 05:08:29;;;;;;;0.88;0.40;;;20.80;41.50;;;;;;5049885;28;20057;-49
2020/12/02 05:10:56;;;;;;;1.13;0.70;;;20.90;41.30;;;;;;5047888;28;20451;-47
2020/12/02 05:13:23;;;;;;;0.73;0.50;;;20.90;41.40;;;;;;5047619;28;20059;-48
2020/12/02 05:16:03;;;;;;;2.72;0.90;;;20.90;41.40;;;;;;5035472;28;20295;-48
2020/12/02 05:18:29;;;;;;;0.93;0.40;;;20.80;41.30;;;;;;5039064;28;20068;-48
2020/12/02 05:21:03;;;;;;;0.80;0.40;;;20.90;41.40;;;;;;5048193;28;20059;-49
2020/12/02 05:23:29;;;;;;;1.23;0.70;;;20.80;41.40;;;;;;5055177;28;20044;-47
2020/12/02 05:25:55;;;;;;;0.80;0.45;;;20.80;41.50;;;;;;5043894;28;20040;-46
2020/12/02 05:28:28;;;;;;;2.35;0.80;;;20.80;41.30;;;;;;5034751;28;20092;-47
2020/12/02 05:31:10;;;;;;;1.73;0.75;;;20.80;41.30;;;;;;5031395;28;20040;-46
2020/12/02 05:33:36;;;;;;;1.10;0.60;;;20.80;41.30;;;;;;5031301;28;20033;-48
2020/12/02 05:36:11;;;;;;;0.90;0.47;;;20.80;41.30;;;;;;5041462;28;20441;-47
2020/12/02 05:38:42;;;;;;;1.00;0.80;;;20.80;41.30;;;;;;5047668;28;20369;-47
2020/12/02 05:41:15;;;;;;;1.45;0.80;;;20.80;41.30;;;;;;5046723;28;20033;-43
2020/12/02 05:43:58;;;;;;;1.10;0.60;;;20.80;41.30;;;;;;5040332;28;20401;-47
2020/12/02 05:46:45;;;;;;;1.00;0.63;;;20.80;41.30;;;;;;5050014;28;20036;-47
2020/12/02 05:49:31;;;;;;;0.90;0.50;;;20.80;41.30;;;;;;5047560;28;20036;-44
2020/12/02 05:51:57;;;;;;;1.70;0.80;;;20.80;41.30;;;;;;5048795;28;20033;-45
2020/12/02 05:54:25;;;;;;;1.75;0.73;;;20.80;41.20;;;;;;5048425;28;20056;-46
2020/12/02 05:56:52;;;;;;;1.13;0.73;;;20.80;41.40;;;;;;5045804;28;20468;-47
2020/12/02 05:59:18;;;;;;;1.35;0.60;;;20.70;41.30;;;;;;5042104;28;20512;-49
2020/12/02 06:01:44;;;;;;;1.20;0.60;;;20.70;41.30;;;;;;5043838;28;20486;-47
2020/12/02 06:04:12;;;;;;;1.67;0.90;;;20.70;41.30;;;;;;5044577;28;20045;-49
2020/12/02 06:06:38;;;;;;;1.65;1.02;;;20.70;41.40;;;;;;5047251;28;20031;-48
2020/12/02 06:09:03;;;;;;;2.15;0.60;;;20.70;41.50;;;;;;5047051;28;20461;-46
2020/12/02 06:11:38;;;;;;;1.00;0.90;;;20.70;41.30;;;;;;5046280;28;20036;-48
2020/12/02 06:14:03;;;;;;;1.30;0.50;;;20.70;41.30;;;;;;5044679;28;20109;-48
2020/12/02 06:16:32;;;;;;;1.45;1.10;;;20.70;41.50;;;;;;5049443;28;20115;-47
2020/12/02 06:19:48;;;;;;;1.10;0.73;;;20.70;41.40;;;;;;5042250;28;20039;-46
2020/12/02 06:22:13;;;;;;;1.88;0.75;;;20.70;41.30;;;;;;4967170;28;20114;-46
2020/12/02 06:24:47;;;;;;;1.33;0.60;;;20.70;41.50;;;;;;5022807;28;20525;-48
2020/12/02 06:27:16;;;;;;;1.60;0.93;;;20.80;41.60;;;;;;5034817;28;20075;-47
2020/12/02 06:29:57;;;;;;;1.58;0.60;;;20.90;41.60;;;;;;5047961;28;20037;-46
2020/12/02 06:32:25;;;;;;;1.13;0.73;;;21.10;41.20;;;;;;5049044;28;20032;-47
2020/12/02 06:35:12;;;;;;;1.23;0.55;;;21.20;40.90;;;;;;5048600;28;20021;-46
2020/12/02 06:37:38;;;;;;;0.80;0.45;;;21.30;40.70;;;;;;5047518;28;20025;-47
2020/12/02 06:40:04;;;;;;;0.70;0.50;;;21.50;40.50;;;;;;5045881;28;20678;-46
2020/12/02 06:42:35;;;;;;;1.30;0.65;;;21.60;40.40;;;;;;5042466;28;20036;-47
2020/12/02 06:45:09;;;;;;;1.90;0.82;;;21.60;40.30;;;;;;5048178;28;20512;-46
2020/12/02 06:47:54;;;;;;;0.95;0.75;;;21.60;40.20;;;;;;5047369;28;20661;-50
2020/12/02 06:50:24;;;;;;;1.23;0.63;;;21.70;40.20;;;;;;5044439;28;20024;-47
2020/12/02 06:52:50;;;;;;;0.98;0.47;;;21.70;40.20;;;;;;5047581;28;20029;-49
2020/12/02 06:55:27;;;;;;;2.17;0.45;;;21.70;40.10;;;;;;5046731;28;20100;-49
2020/12/02 06:58:06;;;;;;;1.98;0.80;;;21.80;40.10;;;;;;5047702;28;20060;-47
2020/12/02 07:00:45;;;;;;;1.30;0.65;;;21.80;40.00;;;;;;5028550;28;20107;-47
2020/12/02 07:03:24;;;;;;;2.13;0.68;;;21.80;40.00;;;;;;5045339;28;20025;-47
2020/12/02 07:06:05;;;;;;;0.95;0.75;;;21.80;40.00;;;;;;5045946;28;20028;-47
2020/12/02 07:08:36;;;;;;;0.95;0.70;;;21.90;40.10;;;;;;5045859;28;20064;-48
2020/12/02 07:11:07;;;;;;;0.80;0.47;;;21.90;40.10;;;;;;5045089;28;20029;-47
2020/12/02 07:13:38;;;;;;;1.57;0.70;;;21.90;40.10;;;;;;5047524;28;20134;-46
2020/12/02 07:16:13;;;;;;;1.30;0.88;;;22.00;40.00;;;;;;5043481;28;20287;-47
2020/12/02 07:18:39;;;;;;;1.52;0.80;;;22.00;40.00;;;;;;5045920;28;20509;-48
2020/12/02 07:21:33;;;;;;;1.30;0.70;;;22.00;39.90;;;;;;5034131;28;20057;-48
2020/12/02 07:24:00;;;;;;;1.20;0.73;;;22.00;40.00;;;;;;5034542;28;20083;-47
2020/12/02 07:26:30;;;;;;;1.13;0.93;;;22.00;40.00;;;;;;5042380;28;20027;-48
2020/12/02 07:29:01;;;;;;;1.70;0.95;;;22.00;40.00;;;;;;5050427;28;20025;-46
2020/12/02 07:31:29;;;;;;;2.25;0.57;;;21.90;40.00;;;;;;5041339;28;20029;-49
2020/12/02 07:34:11;;;;;;;1.30;0.70;;;21.90;40.10;;;;;;5038142;28;20098;-46
2020/12/02 07:36:37;;;;;;;0.90;0.52;;;21.90;40.10;;;;;;5045817;28;20471;-46
2020/12/02 07:39:23;;;;;;;2.47;0.90;;;21.90;40.10;;;;;;5051588;28;20025;-45
2020/12/02 07:42:01;;;;;;;1.30;0.68;;;21.90;40.20;;;;;;5040584;28;20037;-47
2020/12/02 07:44:29;;;;;;;1.33;0.80;;;21.90;40.30;;;;;;5048754;28;20144;-46
2020/12/02 07:46:59;;;;;;;1.52;0.90;;;21.80;40.30;;;;;;5051770;28;20082;-47
2020/12/02 07:49:25;;;;;;;2.33;1.13;;;21.80;40.40;;;;;;5049980;28;20029;-47
2020/12/02 07:52:19;;;;;;;3.03;1.13;;;21.80;40.40;;;;;;5052079;28;20127;-47
2020/12/02 07:54:44;;;;;;;3.28;1.60;;;21.80;40.40;;;;;;5040219;28;20064;-46
2020/12/02 07:57:13;;;;;;;2.75;1.27;;;21.70;40.40;;;;;;5050611;28;20061;-46
2020/12/02 07:59:46;;;;;;;3.25;1.23;;;21.70;40.40;;;;;;5037478;28;20033;-47
2020/12/02 08:02:17;;;;;;;3.50;1.17;;;21.70;40.50;;;;;;5044374;28;20418;-46
2020/12/02 08:04:48;;;;;;;2.83;0.98;;;21.60;40.60;;;;;;5064074;28;20693;-45
2020/12/02 08:07:15;;;;;;;2.55;1.13;;;21.60;40.50;;;;;;5050055;28;20033;-45
2020/12/02 08:09:43;;;;;;;2.58;1.52;;;21.70;40.50;;;;;;5051314;28;20033;-49
2020/12/02 08:12:13;;;;;;;3.92;1.45;;;21.60;40.50;;;;;;5050086;28;20025;-46
2020/12/02 08:14:42;;;;;;;2.88;1.80;;;21.60;40.50;;;;;;5050971;28;20052;-44
2020/12/02 08:17:14;;;;;;;2.63;1.55;;;21.60;40.90;;;;;;5049347;28;20116;-41
2020/12/02 08:19:42;;;;;;;1.80;1.48;;;21.60;40.90;;;;;;5051244;28;20469;-45
2020/12/02 08:22:40;;;;;;;6.03;2.25;;;21.60;41.20;;;;;;5051090;28;20171;-48
2020/12/02 08:25:24;;;;;;;2.80;2.22;;;21.60;41.20;;;;;;5042698;28;20025;-46
2020/12/02 08:27:52;;;;;;;4.28;2.17;;;21.60;41.40;;;;;;5048971;28;20033;-46
2020/12/02 08:30:24;;;;;;;3.72;1.92;;;21.50;41.20;;;;;;5050217;28;20040;-44
2020/12/02 08:32:58;;;;;;;2.17;2.00;;;21.60;41.70;;;;;;5047670;28;20036;-46
2020/12/02 08:35:44;;;;;;;3.35;1.92;;;21.50;41.80;;;;;;5046156;28;20028;-44
2020/12/02 08:38:14;;;;;;;2.70;2.30;;;21.50;41.90;;;;;;5048861;28;20025;-50
2020/12/02 08:40:48;;;;;;;3.13;1.90;;;21.50;42.10;;;;;;5049994;28;20509;-45
2020/12/02 08:43:26;;;;;;;1.88;1.77;;;21.50;41.60;;;;;;5048732;28;20048;-47
2020/12/02 08:46:08;;;;;;;3.45;2.42;;;21.50;41.50;;;;;;5047509;28;20064;-43
2020/12/02 08:48:35;;;;;;;3.75;1.73;;;21.60;41.70;;;;;;5048579;28;20024;-48
2020/12/02 08:51:02;;;;;;;1.77;1.60;;;21.60;41.90;;;;;;5049375;28;20052;-44
2020/12/02 08:53:31;;;;;;;4.28;2.47;;;21.60;42.00;;;;;;5049882;28;20054;-46
2020/12/02 08:55:58;;;;;;;2.88;2.00;;;21.60;42.00;;;;;;5044862;28;20102;-46
2020/12/02 08:58:24;;;;;;;3.03;2.40;;;21.60;41.90;;;;;;5043143;28;20098;-48
2020/12/02 09:00:50;;;;;;;4.43;2.22;;;21.60;41.90;;;;;;5045243;28;20025;-46
2020/12/02 09:03:16;;;;;;;3.97;1.98;;;21.60;41.90;;;;;;5051004;28;20120;-44
2020/12/02 09:05:42;;;;;;;3.15;2.30;;;21.60;41.90;;;;;;5047129;28;20115;-47
2020/12/02 09:08:08;;;;;;;3.13;2.80;;;21.50;41.90;;;;;;5048945;28;20013;-48
2020/12/02 09:10:33;;;;;;;2.78;2.50;;;21.50;42.10;;;;;;5047901;28;20033;-43
2020/12/02 09:12:59;;;;;;;3.90;2.20;;;21.50;42.00;;;;;;5050382;28;20029;-48
2020/12/02 09:15:27;;;;;;;4.13;2.90;;;21.60;42.10;;;;;;5031763;28;20033;-49
2020/12/02 09:17:54;;;;;;;4.22;3.10;;;21.60;41.90;;;;;;5046555;28;20044;-45
2020/12/02 09:20:20;;;;;;;3.92;2.47;;;21.60;41.90;;;;;;5043866;28;20021;-49
2020/12/02 09:22:45;;;;;;;3.13;2.53;;;21.50;41.80;;;;;;5049162;28;20063;-47
2020/12/02 09:25:13;;;;;;;3.03;2.72;;;21.50;41.80;;;;;;5043991;28;20032;-49
2020/12/02 09:27:39;;;;;;;2.83;2.33;;;21.70;41.50;;;;;;5046193;28;20075;-51
2020/12/02 09:30:05;;;;;;;2.63;2.35;;;21.80;41.30;;;;;;5048400;28;20029;-50
2020/12/02 09:32:31;;;;;;;2.90;2.47;;;22.00;41.20;;;;;;5055003;28;20212;-49
2020/12/02 09:34:57;;;;;;;3.75;3.13;;;22.10;41.00;;;;;;5053627;28;20059;-48
2020/12/02 09:37:22;;;;;;;3.50;2.92;;;22.20;40.70;;;;;;5050686;28;20032;-47
2020/12/02 09:39:48;;;;;;;3.33;2.50;;;22.30;40.50;;;;;;5051104;28;20090;-50
2020/12/02 09:42:55;;;;;;;4.05;2.75;;;22.40;40.40;;;;;;5053757;28;20048;-51
2020/12/02 09:45:41;;;;;;;3.28;2.97;;;22.50;40.40;;;;;;5051421;28;20472;-53
2020/12/02 09:48:13;;;;;;;3.90;3.08;;;22.50;40.20;;;;;;5051799;28;20040;-52
2020/12/02 09:50:39;;;;;;;;;;;22.60;40.20;;;;;;5049334;28;20416;-52
2020/12/02 09:53:27;;;;;;;3.60;3.10;;;22.60;40.10;;;;;;5040785;28;19912;-48
2020/12/02 09:55:53;;;;;;;3.70;3.30;;;22.70;40.10;;;;;;5046806;28;20509;-49
2020/12/02 09:58:18;;;;;;;4.30;3.90;;;22.70;40.00;;;;;;5047910;28;20037;-52
2020/12/02 10:00:44;;;;;;;4.10;3.53;;;22.70;40.00;;;;;;5044052;28;20036;-50
2020/12/02 10:06:09;;;;;;;4.40;4.00;;;22.70;40.00;;;;;;5042864;28;20053;-48
2020/12/02 10:08:59;;;;;;;5.00;4.10;;;22.70;40.00;;;;;;5046881;28;20031;-50
2020/12/02 10:11:42;;;;;;;4.50;4.10;;;22.70;40.00;;;;;;5044552;28;20053;-48
2020/12/02 10:14:26;;;;;;;5.03;4.35;;;22.70;40.00;;;;;;5042634;28;20092;-47
2020/12/02 10:17:15;;;;;;;6.88;4.45;;;22.80;40.30;;;;;;5045493;28;20033;-47
2020/12/02 10:20:07;;;;;;;4.65;4.25;;;22.70;40.20;;;;;;5040164;28;20036;-47
2020/12/02 10:22:50;;;;;;;6.13;4.63;;;22.80;40.10;;;;;;5013409;28;20510;-45
2020/12/02 10:25:21;;;;;;;4.68;4.22;;;22.90;40.00;;;;;;5045853;28;20037;-48
2020/12/02 10:28:13;;;;;;;7.15;5.43;;;22.90;39.90;;;;;;5027104;28;20028;-47
2020/12/02 10:30:59;;;;;;;5.35;4.85;;;23.00;40.00;;;;;;5043405;28;20029;-49
2020/12/02 10:33:55;;;;;;;5.50;5.00;;;23.00;40.10;;;;;;5048998;28;20036;-48
2020/12/02 10:36:34;;;;;;;6.70;5.40;;;23.00;40.10;;;;;;5046418;28;20029;-47
2020/12/02 10:39:04;;;;;;;6.07;5.25;;;23.00;40.20;;;;;;5048613;28;20636;-46
2020/12/02 10:42:10;;;;;;;5.30;4.82;;;22.90;40.30;;;;;;5046175;28;20028;-48
2020/12/02 10:44:58;;;;;;;6.20;5.28;;;23.00;40.30;;;;;;5045252;28;20045;-48
2020/12/02 10:47:53;;;;;;;5.97;5.35;;;23.00;40.30;;;;;;5042261;28;20100;-48
2020/12/02 10:50:22;;;;;;;6.10;5.50;;;23.00;40.30;;;;;;5041867;28;20025;-47
2020/12/02 10:52:50;;;;;;;5.70;5.10;;;22.90;40.50;;;;;;5047772;28;20056;-47
2020/12/02 10:55:19;;;;;;;6.90;6.20;;;22.90;40.60;;;;;;5037512;28;20040;-45
2020/12/02 10:58:13;;;;;;;7.22;6.53;;;22.90;41.10;;;;;;5043984;28;20067;-45
2020/12/02 11:00:40;;;;;;;8.55;5.80;;;22.80;40.80;;;;;;5046714;28;20079;-46
2020/12/02 11:03:19;;;;;;;7.00;6.30;;;22.80;40.70;;;;;;5045395;28;20103;-47
2020/12/02 11:06:09;;;;;;;5.85;5.35;;;22.80;40.70;;;;;;5045582;28;20754;-46
2020/12/02 11:08:50;;;;;;;5.68;5.07;;;22.70;40.80;;;;;;5042625;28;20395;-48
2020/12/02 11:11:40;;;;;;;7.50;6.60;;;22.60;41.00;;;;;;5045972;28;20031;-48
2020/12/02 11:14:25;;;;;;;7.18;6.13;;;22.50;41.30;;;;;;5045315;28;20025;-48
2020/12/02 11:17:10;;;;;;;6.70;6.03;;;22.40;41.50;;;;;;5046334;28;20078;-49
2020/12/02 11:20:07;;;;;;;7.43;6.40;;;22.40;41.70;;;;;;5046304;28;20033;-49
2020/12/02 11:23:13;;;;;;;7.25;4.90;;;22.30;41.80;;;;;;5040349;28;20048;-48
2020/12/02 11:26:10;;;;;;;7.18;6.47;;;22.30;41.90;;;;;;5044709;28;20037;-50
2020/12/02 11:28:46;;;;;;;7.63;6.13;;;22.30;41.90;;;;;;5045660;28;20025;-49
2020/12/02 11:31:31;;;;;;;8.00;6.65;;;22.30;42.00;;;;;;5043181;28;20029;-48
2020/12/02 11:33:57;;;;;;;7.07;5.88;;;22.20;42.00;;;;;;5035219;28;20080;-46
2020/12/02 11:36:44;;;;;;;6.38;5.78;;;22.20;42.20;;;;;;5045771;28;20037;-46
2020/12/02 11:39:33;;;;;;;5.90;5.38;;;22.20;42.20;;;;;;5041544;28;20025;-46
2020/12/02 11:42:15;;;;;;;7.50;5.68;;;22.20;42.10;;;;;;5028295;28;20025;-49
2020/12/02 11:44:53;;;;;;;6.80;5.90;;;22.20;42.30;;;;;;5040768;28;20037;-52
2020/12/02 11:47:29;;;;;;;7.30;6.43;;;22.10;42.10;;;;;;5046521;28;20056;-54
2020/12/02 11:50:01;;;;;;;7.90;6.05;;;22.10;42.20;;;;;;5047192;28;20021;-47
2020/12/02 11:52:50;;;;;;;6.07;5.57;;;22.10;42.40;;;;;;5046352;28;20461;-47
2020/12/02 11:55:19;;;;;;;6.75;5.88;;;22.10;42.30;;;;;;5044447;28;20024;-48
2020/12/02 11:57:53;;;;;;;6.63;5.60;;;22.20;42.60;;;;;;5048258;28;20103;-49
2020/12/02 12:00:19;;;;;;;6.13;5.50;;;22.30;42.20;;;;;;5030102;28;20449;-49
2020/12/02 12:03:19;;;;;;;8.27;5.50;;;22.40;42.10;;;;;;5045604;28;20033;-45
2020/12/02 12:06:07;;;;;;;6.03;5.40;;;22.50;41.90;;;;;;5016459;28;20042;-49
2020/12/02 12:08:39;;;;;;;5.43;4.93;;;22.70;41.80;;;;;;5043902;28;20060;-48
2020/12/02 12:11:31;;;;;;;5.88;5.25;;;22.70;41.70;;;;;;5043255;28;20033;-47
2020/12/02 12:14:05;;;;;;;5.50;5.00;;;22.80;41.70;;;;;;5030317;28;20025;-47
2020/12/02 12:16:48;;;;;;;6.25;5.00;;;22.80;41.70;;;;;;5037559;28;20037;-45
2020/12/02 12:19:57;;;;;;;6.00;4.82;;;22.80;41.70;;;;;;5046326;28;20025;-49
2020/12/02 12:22:29;;;;;;;6.13;5.50;;;22.80;41.60;;;;;;5027923;28;20095;-48
2020/12/02 12:25:07;;;;;;;6.13;5.53;;;22.90;41.60;;;;;;5040288;28;20029;-50
2020/12/02 12:27:32;;;;;;;6.30;5.68;;;22.90;41.60;;;;;;5049497;28;20043;-50
2020/12/02 12:29:58;;;;;;;5.75;5.18;;;22.90;41.60;;;;;;5030088;28;20403;-53
2020/12/02 12:32:41;;;;;;;6.38;5.30;;;22.90;41.70;;;;;;5049936;28;20028;-50
2020/12/02 12:35:22;;;;;;;6.28;5.45;;;22.90;41.80;;;;;;5048501;28;20558;-50
2020/12/02 12:38:10;;;;;;;7.18;6.35;;;22.90;41.70;;;;;;5051967;28;20028;-48
2020/12/02 12:40:47;;;;;;;6.35;5.78;;;22.90;41.70;;;;;;5030310;28;20036;-50
2020/12/02 12:43:18;;;;;;;5.80;5.28;;;23.00;41.70;;;;;;5047368;28;20032;-50
2020/12/02 12:45:47;;;;;;;6.53;5.93;;;23.00;41.70;;;;;;5047238;28;20119;-47
2020/12/02 12:48:16;;;;;;;5.97;5.38;;;23.00;41.70;;;;;;5007275;28;20029;-49
2020/12/02 12:50:48;;;;;;;5.93;5.30;;;23.00;41.80;;;;;;5047167;28;20486;-50
2020/12/02 12:53:19;;;;;;;9.23;6.30;;;23.00;41.80;;;;;;5051122;28;20633;-48
2020/12/02 12:55:45;;;;;;;5.25;4.65;;;23.00;41.90;;;;;;5048353;28;20028;-49
2020/12/02 12:58:17;;;;;;;5.80;5.30;;;23.00;42.40;;;;;;5046002;28;20026;-50
2020/12/02 13:00:49;;;;;;;5.95;5.40;;;23.00;42.00;;;;;;5046034;28;20103;-50
2020/12/02 13:03:29;;;;;;;6.05;5.45;;;22.90;42.00;;;;;;5030492;28;20391;-47
2020/12/02 13:06:26;;;;;;;7.15;6.38;;;22.90;42.10;;;;;;5048281;28;20041;-50
2020/12/02 13:08:54;;;;;;;6.55;5.93;;;22.90;42.10;;;;;;5048419;28;20017;-48
2020/12/02 13:11:52;;;;;;;6.95;5.63;;;22.80;42.20;;;;;;5045300;28;20026;-48
2020/12/02 13:14:59;;;;;;;6.25;5.75;;;22.80;42.30;;;;;;5046272;28;20025;-49
2020/12/02 13:17:41;;;;;;;7.30;5.97;;;22.70;42.30;;;;;;5034434;28;20126;-48
2020/12/02 13:20:18;;;;;;;7.68;6.97;;;22.70;42.40;;;;;;5047470;28;20040;-50
2020/12/02 13:22:49;;;;;;;7.40;6.70;;;22.70;42.40;;;;;;5043209;28;20033;-49